sensor_id;sensor_type;location;lat;lon;timestamp;P1;durP1;ratioP1;P2;durP2;ratioP2
12585;SDS011;6358;50.760;0.282;2023-09-30T00:01:26;2.40;;;1.37;;
12585;SDS011;6358;50.760;0.282;2023-09-30T00:03:52;3.03;;;1.67;;
12585;SDS011;6358;50.760;0.282;2023-09-30T00:06:18;1.90;;;1.13;;
12585;SDS011;6358;50.760;0.282;2023-09-30T00:08:44;2.00;;;1.20;;
12585;SDS011;6358;50.760;0.282;2023-09-30T00:11:11;2.90;;;1.30;;
12585;SDS011;6358;50.760;0.282;2023-09-30T00:13:41;1.70;;;1.10;;
12585;SDS011;6358;50.760;0.282;2023-09-30T00:16:08;2.97;;;1.38;;
12585;SDS011;6358;50.760;0.282;2023-09-30T00:18:34;2.45;;;1.27;;
12585;SDS011;6358;50.760;0.282;2023-09-30T00:21:00;1.52;;;1.10;;
12585;SDS011;6358;50.760;0.282;2023-09-30T00:23:26;2.72;;;1.40;;
12585;SDS011;6358;50.760;0.282;2023-09-30T00:25:52;2.15;;;1.00;;
12585;SDS011;6358;50.760;0.282;2023-09-30T00:28:18;2.53;;;1.40;;
12585;SDS011;6358;50.760;0.282;2023-09-30T00:30:44;1.27;;;1.03;;
12585;SDS011;6358;50.760;0.282;2023-09-30T00:33:12;2.73;;;1.27;;
12585;SDS011;6358;50.760;0.282;2023-09-30T00:35:38;2.30;;;1.03;;
12585;SDS011;6358;50.760;0.282;2023-09-30T00:38:04;2.13;;;1.33;;
12585;SDS011;6358;50.760;0.282;2023-09-30T00:40:31;2.60;;;1.30;;
12585;SDS011;6358;50.760;0.282;2023-09-30T00:42:57;2.93;;;1.40;;
12585;SDS011;6358;50.760;0.282;2023-09-30T00:45:23;2.33;;;1.20;;
12585;SDS011;6358;50.760;0.282;2023-09-30T00:47:50;1.35;;;1.05;;
12585;SDS011;6358;50.760;0.282;2023-09-30T00:50:16;1.87;;;1.20;;
12585;SDS011;6358;50.760;0.282;2023-09-30T00:52:45;1.40;;;1.00;;
12585;SDS011;6358;50.760;0.282;2023-09-30T00:55:11;1.60;;;1.10;;
12585;SDS011;6358;50.760;0.282;2023-09-30T00:57:37;1.83;;;0.97;;
12585;SDS011;6358;50.760;0.282;2023-09-30T01:00:04;1.97;;;1.37;;
12585;SDS011;6358;50.760;0.282;2023-09-30T01:02:31;1.93;;;1.30;;
12585;SDS011;6358;50.760;0.282;2023-09-30T01:04:59;2.37;;;1.10;;
12585;SDS011;6358;50.760;0.282;2023-09-30T01:07:27;2.08;;;1.10;;
12585;SDS011;6358;50.760;0.282;2023-09-30T01:09:53;2.03;;;1.13;;
12585;SDS011;6358;50.760;0.282;2023-09-30T01:12:19;2.95;;;1.50;;
12585;SDS011;6358;50.760;0.282;2023-09-30T01:14:46;1.77;;;1.17;;
12585;SDS011;6358;50.760;0.282;2023-09-30T01:17:12;1.45;;;1.00;;
12585;SDS011;6358;50.760;0.282;2023-09-30T01:19:41;1.93;;;1.10;;
12585;SDS011;6358;50.760;0.282;2023-09-30T01:22:07;1.92;;;1.20;;
12585;SDS011;6358;50.760;0.282;2023-09-30T01:24:38;2.20;;;1.03;;
12585;SDS011;6358;50.760;0.282;2023-09-30T01:27:05;1.40;;;1.00;;
12585;SDS011;6358;50.760;0.282;2023-09-30T01:29:31;1.40;;;1.10;;
12585;SDS011;6358;50.760;0.282;2023-09-30T01:31:57;1.88;;;1.00;;
12585;SDS011;6358;50.760;0.282;2023-09-30T01:34:23;2.22;;;1.00;;
12585;SDS011;6358;50.760;0.282;2023-09-30T01:36:49;1.73;;;1.33;;
12585;SDS011;6358;50.760;0.282;2023-09-30T01:39:16;3.25;;;1.40;;
12585;SDS011;6358;50.760;0.282;2023-09-30T01:41:42;0.80;;;0.73;;
12585;SDS011;6358;50.760;0.282;2023-09-30T01:44:08;1.77;;;0.82;;
12585;SDS011;6358;50.760;0.282;2023-09-30T01:46:35;1.30;;;0.90;;
12585;SDS011;6358;50.760;0.282;2023-09-30T01:49:02;2.53;;;1.40;;
12585;SDS011;6358;50.760;0.282;2023-09-30T01:51:29;1.42;;;1.10;;
12585;SDS011;6358;50.760;0.282;2023-09-30T01:53:55;1.77;;;1.05;;
12585;SDS011;6358;50.760;0.282;2023-09-30T01:56:21;2.08;;;1.10;;
12585;SDS011;6358;50.760;0.282;2023-09-30T01:58:47;2.63;;;1.17;;
12585;SDS011;6358;50.760;0.282;2023-09-30T02:01:13;2.70;;;1.10;;
12585;SDS011;6358;50.760;0.282;2023-09-30T02:03:40;1.23;;;1.00;;
12585;SDS011;6358;50.760;0.282;2023-09-30T02:06:07;1.90;;;1.10;;
12585;SDS011;6358;50.760;0.282;2023-09-30T02:08:33;1.48;;;1.02;;
12585;SDS011;6358;50.760;0.282;2023-09-30T02:11:01;1.50;;;1.00;;
12585;SDS011;6358;50.760;0.282;2023-09-30T02:13:27;1.33;;;1.17;;
12585;SDS011;6358;50.760;0.282;2023-09-30T02:15:53;1.92;;;0.95;;
12585;SDS011;6358;50.760;0.282;2023-09-30T02:18:20;1.58;;;1.25;;
12585;SDS011;6358;50.760;0.282;2023-09-30T02:20:48;1.63;;;1.10;;
12585;SDS011;6358;50.760;0.282;2023-09-30T02:23:15;1.67;;;1.00;;
12585;SDS011;6358;50.760;0.282;2023-09-30T02:25:42;1.77;;;1.00;;
12585;SDS011;6358;50.760;0.282;2023-09-30T02:28:08;1.80;;;1.02;;
12585;SDS011;6358;50.760;0.282;2023-09-30T02:30:34;1.33;;;0.98;;
12585;SDS011;6358;50.760;0.282;2023-09-30T02:33:01;2.05;;;1.17;;
12585;SDS011;6358;50.760;0.282;2023-09-30T02:35:27;2.07;;;1.00;;
12585;SDS011;6358;50.760;0.282;2023-09-30T02:37:53;1.37;;;1.00;;
12585;SDS011;6358;50.760;0.282;2023-09-30T02:40:20;1.83;;;0.90;;
12585;SDS011;6358;50.760;0.282;2023-09-30T02:42:46;1.65;;;1.05;;
12585;SDS011;6358;50.760;0.282;2023-09-30T02:45:14;1.90;;;1.00;;
12585;SDS011;6358;50.760;0.282;2023-09-30T02:47:42;1.73;;;1.00;;
12585;SDS011;6358;50.760;0.282;2023-09-30T02:50:14;1.80;;;0.95;;
12585;SDS011;6358;50.760;0.282;2023-09-30T02:52:40;1.58;;;1.00;;
12585;SDS011;6358;50.760;0.282;2023-09-30T02:55:07;2.47;;;0.90;;
12585;SDS011;6358;50.760;0.282;2023-09-30T02:57:34;1.63;;;0.80;;
12585;SDS011;6358;50.760;0.282;2023-09-30T03:00:01;1.88;;;0.80;;
12585;SDS011;6358;50.760;0.282;2023-09-30T03:02:37;1.48;;;1.00;;
12585;SDS011;6358;50.760;0.282;2023-09-30T03:05:03;1.20;;;1.00;;
12585;SDS011;6358;50.760;0.282;2023-09-30T03:07:29;1.30;;;1.10;;
12585;SDS011;6358;50.760;0.282;2023-09-30T03:09:58;1.52;;;1.00;;
12585;SDS011;6358;50.760;0.282;2023-09-30T03:12:29;3.00;;;0.93;;
12585;SDS011;6358;50.760;0.282;2023-09-30T03:14:56;2.57;;;1.23;;
12585;SDS011;6358;50.760;0.282;2023-09-30T03:17:23;1.17;;;1.05;;
12585;SDS011;6358;50.760;0.282;2023-09-30T03:19:50;2.15;;;1.15;;
12585;SDS011;6358;50.760;0.282;2023-09-30T03:22:17;1.67;;;0.90;;
12585;SDS011;6358;50.760;0.282;2023-09-30T03:24:43;1.70;;;1.07;;
12585;SDS011;6358;50.760;0.282;2023-09-30T03:27:09;2.20;;;1.10;;
12585;SDS011;6358;50.760;0.282;2023-09-30T03:29:35;2.90;;;1.30;;
12585;SDS011;6358;50.760;0.282;2023-09-30T03:32:03;2.37;;;1.20;;
12585;SDS011;6358;50.760;0.282;2023-09-30T03:34:29;1.40;;;1.00;;
12585;SDS011;6358;50.760;0.282;2023-09-30T03:36:55;2.37;;;1.30;;
12585;SDS011;6358;50.760;0.282;2023-09-30T03:39:23;3.07;;;1.23;;
12585;SDS011;6358;50.760;0.282;2023-09-30T03:41:54;3.17;;;1.40;;
12585;SDS011;6358;50.760;0.282;2023-09-30T03:44:21;2.60;;;1.13;;
12585;SDS011;6358;50.760;0.282;2023-09-30T03:46:48;2.27;;;1.03;;
12585;SDS011;6358;50.760;0.282;2023-09-30T03:51:57;1.20;;;1.00;;
12585;SDS011;6358;50.760;0.282;2023-09-30T03:54:23;2.25;;;1.00;;
12585;SDS011;6358;50.760;0.282;2023-09-30T03:56:49;2.10;;;1.20;;
12585;SDS011;6358;50.760;0.282;2023-09-30T03:59:15;2.13;;;1.10;;
12585;SDS011;6358;50.760;0.282;2023-09-30T04:01:41;2.90;;;1.13;;
12585;SDS011;6358;50.760;0.282;2023-09-30T04:04:07;1.97;;;1.17;;
12585;SDS011;6358;50.760;0.282;2023-09-30T04:06:36;1.90;;;1.07;;
12585;SDS011;6358;50.760;0.282;2023-09-30T04:09:04;2.10;;;1.30;;
12585;SDS011;6358;50.760;0.282;2023-09-30T04:11:35;1.37;;;1.00;;
12585;SDS011;6358;50.760;0.282;2023-09-30T04:14:01;2.08;;;1.30;;
12585;SDS011;6358;50.760;0.282;2023-09-30T04:16:27;2.23;;;1.20;;
12585;SDS011;6358;50.760;0.282;2023-09-30T04:18:54;2.00;;;1.20;;
12585;SDS011;6358;50.760;0.282;2023-09-30T04:21:20;2.60;;;1.27;;
12585;SDS011;6358;50.760;0.282;2023-09-30T04:23:46;2.40;;;1.10;;
12585;SDS011;6358;50.760;0.282;2023-09-30T04:26:14;2.63;;;1.23;;
12585;SDS011;6358;50.760;0.282;2023-09-30T04:28:40;1.70;;;1.20;;
12585;SDS011;6358;50.760;0.282;2023-09-30T04:31:06;1.20;;;0.83;;
12585;SDS011;6358;50.760;0.282;2023-09-30T04:33:33;2.47;;;1.20;;
12585;SDS011;6358;50.760;0.282;2023-09-30T04:36:01;1.73;;;1.13;;
12585;SDS011;6358;50.760;0.282;2023-09-30T04:38:27;2.80;;;1.23;;
12585;SDS011;6358;50.760;0.282;2023-09-30T04:40:55;1.57;;;1.17;;
12585;SDS011;6358;50.760;0.282;2023-09-30T04:43:23;2.60;;;1.10;;
12585;SDS011;6358;50.760;0.282;2023-09-30T04:45:49;3.20;;;1.40;;
12585;SDS011;6358;50.760;0.282;2023-09-30T04:48:18;1.90;;;1.13;;
12585;SDS011;6358;50.760;0.282;2023-09-30T04:50:44;2.47;;;1.10;;
12585;SDS011;6358;50.760;0.282;2023-09-30T04:53:10;2.87;;;1.40;;
12585;SDS011;6358;50.760;0.282;2023-09-30T04:55:37;1.40;;;0.90;;
12585;SDS011;6358;50.760;0.282;2023-09-30T04:58:04;2.17;;;1.00;;
12585;SDS011;6358;50.760;0.282;2023-09-30T05:00:30;1.67;;;1.10;;
12585;SDS011;6358;50.760;0.282;2023-09-30T05:02:56;2.47;;;1.00;;
12585;SDS011;6358;50.760;0.282;2023-09-30T05:05:24;1.73;;;0.90;;
12585;SDS011;6358;50.760;0.282;2023-09-30T05:07:50;1.70;;;1.03;;
12585;SDS011;6358;50.760;0.282;2023-09-30T05:10:16;1.57;;;1.10;;
12585;SDS011;6358;50.760;0.282;2023-09-30T05:12:45;1.93;;;1.23;;
12585;SDS011;6358;50.760;0.282;2023-09-30T05:15:11;1.63;;;1.10;;
12585;SDS011;6358;50.760;0.282;2023-09-30T05:17:38;1.70;;;1.20;;
12585;SDS011;6358;50.760;0.282;2023-09-30T05:20:05;1.75;;;1.20;;
12585;SDS011;6358;50.760;0.282;2023-09-30T05:22:32;1.67;;;1.00;;
12585;SDS011;6358;50.760;0.282;2023-09-30T05:24:58;1.70;;;1.10;;
12585;SDS011;6358;50.760;0.282;2023-09-30T05:27:25;2.90;;;1.23;;
12585;SDS011;6358;50.760;0.282;2023-09-30T05:29:52;2.20;;;1.20;;
12585;SDS011;6358;50.760;0.282;2023-09-30T05:32:19;1.52;;;1.08;;
12585;SDS011;6358;50.760;0.282;2023-09-30T05:34:45;1.83;;;1.10;;
12585;SDS011;6358;50.760;0.282;2023-09-30T05:37:12;2.43;;;1.17;;
12585;SDS011;6358;50.760;0.282;2023-09-30T05:39:38;2.23;;;1.30;;
12585;SDS011;6358;50.760;0.282;2023-09-30T05:42:04;2.80;;;1.13;;
12585;SDS011;6358;50.760;0.282;2023-09-30T05:44:31;1.90;;;1.10;;
12585;SDS011;6358;50.760;0.282;2023-09-30T05:46:57;1.73;;;1.00;;
12585;SDS011;6358;50.760;0.282;2023-09-30T05:49:25;1.67;;;1.10;;
12585;SDS011;6358;50.760;0.282;2023-09-30T05:51:51;1.63;;;1.20;;
12585;SDS011;6358;50.760;0.282;2023-09-30T05:54:17;1.93;;;1.10;;
12585;SDS011;6358;50.760;0.282;2023-09-30T05:56:43;1.63;;;1.00;;
12585;SDS011;6358;50.760;0.282;2023-09-30T05:59:09;1.43;;;0.97;;
12585;SDS011;6358;50.760;0.282;2023-09-30T06:01:36;2.03;;;1.20;;
12585;SDS011;6358;50.760;0.282;2023-09-30T06:04:04;2.67;;;1.10;;
12585;SDS011;6358;50.760;0.282;2023-09-30T06:06:30;2.23;;;1.30;;
12585;SDS011;6358;50.760;0.282;2023-09-30T06:08:57;1.23;;;1.03;;
12585;SDS011;6358;50.760;0.282;2023-09-30T06:11:24;1.80;;;1.30;;
12585;SDS011;6358;50.760;0.282;2023-09-30T06:13:50;1.57;;;1.07;;
12585;SDS011;6358;50.760;0.282;2023-09-30T06:16:18;1.53;;;1.40;;
12585;SDS011;6358;50.760;0.282;2023-09-30T06:18:44;1.53;;;1.20;;
12585;SDS011;6358;50.760;0.282;2023-09-30T06:21:10;1.27;;;1.00;;
12585;SDS011;6358;50.760;0.282;2023-09-30T06:23:36;2.43;;;1.40;;
12585;SDS011;6358;50.760;0.282;2023-09-30T06:26:03;2.60;;;1.30;;
12585;SDS011;6358;50.760;0.282;2023-09-30T06:28:29;1.60;;;1.03;;
12585;SDS011;6358;50.760;0.282;2023-09-30T06:30:57;1.57;;;1.20;;
12585;SDS011;6358;50.760;0.282;2023-09-30T06:33:23;1.83;;;1.13;;
12585;SDS011;6358;50.760;0.282;2023-09-30T06:35:50;2.03;;;1.20;;
12585;SDS011;6358;50.760;0.282;2023-09-30T06:38:17;1.90;;;1.20;;
12585;SDS011;6358;50.760;0.282;2023-09-30T06:40:43;2.30;;;1.03;;
12585;SDS011;6358;50.760;0.282;2023-09-30T06:43:11;2.30;;;1.20;;
12585;SDS011;6358;50.760;0.282;2023-09-30T06:45:41;1.57;;;1.03;;
12585;SDS011;6358;50.760;0.282;2023-09-30T06:48:07;1.13;;;0.83;;
12585;SDS011;6358;50.760;0.282;2023-09-30T06:50:38;1.50;;;1.20;;
12585;SDS011;6358;50.760;0.282;2023-09-30T06:53:04;3.87;;;1.17;;
12585;SDS011;6358;50.760;0.282;2023-09-30T06:55:31;1.43;;;1.00;;
12585;SDS011;6358;50.760;0.282;2023-09-30T06:57:57;1.80;;;1.30;;
12585;SDS011;6358;50.760;0.282;2023-09-30T07:00:23;3.13;;;1.20;;
12585;SDS011;6358;50.760;0.282;2023-09-30T07:02:50;3.23;;;1.10;;
12585;SDS011;6358;50.760;0.282;2023-09-30T07:05:16;2.60;;;1.27;;
12585;SDS011;6358;50.760;0.282;2023-09-30T07:07:42;1.90;;;1.10;;
12585;SDS011;6358;50.760;0.282;2023-09-30T07:10:09;1.77;;;1.13;;
12585;SDS011;6358;50.760;0.282;2023-09-30T07:12:36;4.20;;;1.40;;
12585;SDS011;6358;50.760;0.282;2023-09-30T07:15:02;6.60;;;1.50;;
12585;SDS011;6358;50.760;0.282;2023-09-30T07:17:29;7.83;;;1.60;;
12585;SDS011;6358;50.760;0.282;2023-09-30T07:19:55;3.63;;;1.30;;
12585;SDS011;6358;50.760;0.282;2023-09-30T07:22:21;3.67;;;1.07;;
12585;SDS011;6358;50.760;0.282;2023-09-30T07:24:48;1.37;;;1.10;;
12585;SDS011;6358;50.760;0.282;2023-09-30T07:27:14;3.10;;;1.20;;
12585;SDS011;6358;50.760;0.282;2023-09-30T07:29:40;4.17;;;1.43;;
12585;SDS011;6358;50.760;0.282;2023-09-30T07:32:07;2.97;;;1.20;;
12585;SDS011;6358;50.760;0.282;2023-09-30T07:34:34;3.03;;;1.20;;
12585;SDS011;6358;50.760;0.282;2023-09-30T07:37:00;2.40;;;1.20;;
12585;SDS011;6358;50.760;0.282;2023-09-30T07:39:26;2.33;;;1.20;;
12585;SDS011;6358;50.760;0.282;2023-09-30T07:41:53;3.77;;;1.30;;
12585;SDS011;6358;50.760;0.282;2023-09-30T07:44:19;1.67;;;1.17;;
12585;SDS011;6358;50.760;0.282;2023-09-30T07:46:45;3.47;;;1.20;;
12585;SDS011;6358;50.760;0.282;2023-09-30T07:49:12;2.53;;;1.40;;
12585;SDS011;6358;50.760;0.282;2023-09-30T07:51:38;2.20;;;1.40;;
12585;SDS011;6358;50.760;0.282;2023-09-30T07:54:07;2.67;;;1.40;;
12585;SDS011;6358;50.760;0.282;2023-09-30T07:56:33;3.07;;;1.50;;
12585;SDS011;6358;50.760;0.282;2023-09-30T07:58:59;2.83;;;1.83;;
12585;SDS011;6358;50.760;0.282;2023-09-30T08:01:26;3.53;;;1.90;;
12585;SDS011;6358;50.760;0.282;2023-09-30T08:03:55;4.80;;;2.57;;
12585;SDS011;6358;50.760;0.282;2023-09-30T08:06:21;5.03;;;2.63;;
12585;SDS011;6358;50.760;0.282;2023-09-30T08:08:48;6.83;;;2.63;;
12585;SDS011;6358;50.760;0.282;2023-09-30T08:11:14;5.10;;;2.60;;
12585;SDS011;6358;50.760;0.282;2023-09-30T08:13:41;8.57;;;2.67;;
12585;SDS011;6358;50.760;0.282;2023-09-30T08:16:07;4.33;;;2.43;;
12585;SDS011;6358;50.760;0.282;2023-09-30T08:18:33;4.53;;;2.40;;
12585;SDS011;6358;50.760;0.282;2023-09-30T08:20:59;4.00;;;2.50;;
12585;SDS011;6358;50.760;0.282;2023-09-30T08:23:25;5.13;;;2.50;;
12585;SDS011;6358;50.760;0.282;2023-09-30T08:25:51;3.83;;;2.13;;
12585;SDS011;6358;50.760;0.282;2023-09-30T08:28:17;4.30;;;2.20;;
12585;SDS011;6358;50.760;0.282;2023-09-30T08:30:44;4.30;;;1.97;;
12585;SDS011;6358;50.760;0.282;2023-09-30T08:33:10;4.47;;;2.30;;
12585;SDS011;6358;50.760;0.282;2023-09-30T08:35:36;5.23;;;2.30;;
12585;SDS011;6358;50.760;0.282;2023-09-30T08:38:05;4.73;;;2.27;;
12585;SDS011;6358;50.760;0.282;2023-09-30T08:40:31;4.18;;;1.98;;
12585;SDS011;6358;50.760;0.282;2023-09-30T08:42:57;2.67;;;2.00;;
12585;SDS011;6358;50.760;0.282;2023-09-30T08:45:24;3.92;;;2.20;;
12585;SDS011;6358;50.760;0.282;2023-09-30T08:47:54;4.90;;;2.15;;
12585;SDS011;6358;50.760;0.282;2023-09-30T08:50:21;3.40;;;1.80;;
12585;SDS011;6358;50.760;0.282;2023-09-30T08:52:47;3.40;;;2.20;;
12585;SDS011;6358;50.760;0.282;2023-09-30T08:55:14;2.97;;;1.67;;
12585;SDS011;6358;50.760;0.282;2023-09-30T08:57:41;3.33;;;1.80;;
12585;SDS011;6358;50.760;0.282;2023-09-30T09:00:08;2.83;;;1.70;;
12585;SDS011;6358;50.760;0.282;2023-09-30T09:02:38;3.30;;;2.10;;
12585;SDS011;6358;50.760;0.282;2023-09-30T09:05:04;2.90;;;1.87;;
12585;SDS011;6358;50.760;0.282;2023-09-30T09:07:31;3.80;;;2.03;;
12585;SDS011;6358;50.760;0.282;2023-09-30T09:10:08;2.60;;;1.73;;
12585;SDS011;6358;50.760;0.282;2023-09-30T09:12:36;4.07;;;2.43;;
12585;SDS011;6358;50.760;0.282;2023-09-30T09:15:07;2.90;;;1.97;;
12585;SDS011;6358;50.760;0.282;2023-09-30T09:17:40;3.20;;;1.90;;
12585;SDS011;6358;50.760;0.282;2023-09-30T09:20:07;4.17;;;2.00;;
12585;SDS011;6358;50.760;0.282;2023-09-30T09:22:43;3.60;;;1.93;;
12585;SDS011;6358;50.760;0.282;2023-09-30T09:25:10;3.27;;;1.83;;
12585;SDS011;6358;50.760;0.282;2023-09-30T09:27:36;3.80;;;2.10;;
12585;SDS011;6358;50.760;0.282;2023-09-30T09:33:00;3.50;;;2.10;;
12585;SDS011;6358;50.760;0.282;2023-09-30T09:35:27;3.33;;;2.10;;
12585;SDS011;6358;50.760;0.282;2023-09-30T09:38:04;2.77;;;1.73;;
12585;SDS011;6358;50.760;0.282;2023-09-30T09:40:34;3.20;;;1.90;;
12585;SDS011;6358;50.760;0.282;2023-09-30T09:43:01;3.33;;;2.00;;
12585;SDS011;6358;50.760;0.282;2023-09-30T09:45:33;3.63;;;1.93;;
12585;SDS011;6358;50.760;0.282;2023-09-30T09:48:00;2.97;;;1.87;;
12585;SDS011;6358;50.760;0.282;2023-09-30T09:50:26;3.13;;;1.87;;
12585;SDS011;6358;50.760;0.282;2023-09-30T09:52:53;2.77;;;1.90;;
12585;SDS011;6358;50.760;0.282;2023-09-30T09:55:24;3.33;;;1.80;;
12585;SDS011;6358;50.760;0.282;2023-09-30T09:57:50;3.97;;;2.00;;
12585;SDS011;6358;50.760;0.282;2023-09-30T10:00:24;2.53;;;1.80;;
12585;SDS011;6358;50.760;0.282;2023-09-30T10:02:51;3.43;;;1.80;;
12585;SDS011;6358;50.760;0.282;2023-09-30T10:05:19;3.10;;;2.03;;
12585;SDS011;6358;50.760;0.282;2023-09-30T10:10:14;3.43;;;2.00;;
12585;SDS011;6358;50.760;0.282;2023-09-30T10:12:41;3.00;;;1.97;;
12585;SDS011;6358;50.760;0.282;2023-09-30T10:18:11;2.33;;;1.88;;
12585;SDS011;6358;50.760;0.282;2023-09-30T10:20:38;5.27;;;2.07;;
12585;SDS011;6358;50.760;0.282;2023-09-30T10:25:45;3.67;;;1.87;;
12585;SDS011;6358;50.760;0.282;2023-09-30T10:31:12;3.40;;;1.80;;
12585;SDS011;6358;50.760;0.282;2023-09-30T10:36:27;3.37;;;1.70;;
12585;SDS011;6358;50.760;0.282;2023-09-30T10:38:57;4.23;;;1.90;;
12585;SDS011;6358;50.760;0.282;2023-09-30T10:46:53;4.53;;;2.40;;
12585;SDS011;6358;50.760;0.282;2023-09-30T10:51:49;4.63;;;1.93;;
12585;SDS011;6358;50.760;0.282;2023-09-30T10:54:15;4.37;;;1.97;;
12585;SDS011;6358;50.760;0.282;2023-09-30T10:56:48;4.55;;;1.90;;
12585;SDS011;6358;50.760;0.282;2023-09-30T10:59:21;6.60;;;2.03;;
12585;SDS011;6358;50.760;0.282;2023-09-30T11:01:47;3.43;;;1.90;;
12585;SDS011;6358;50.760;0.282;2023-09-30T11:04:13;3.60;;;1.80;;
12585;SDS011;6358;50.760;0.282;2023-09-30T11:06:40;3.17;;;1.70;;
12585;SDS011;6358;50.760;0.282;2023-09-30T11:09:07;3.40;;;2.00;;
12585;SDS011;6358;50.760;0.282;2023-09-30T11:11:40;4.20;;;2.07;;
12585;SDS011;6358;50.760;0.282;2023-09-30T11:14:30;4.20;;;1.93;;
12585;SDS011;6358;50.760;0.282;2023-09-30T11:16:59;4.90;;;2.00;;
12585;SDS011;6358;50.760;0.282;2023-09-30T11:19:27;3.58;;;1.95;;
12585;SDS011;6358;50.760;0.282;2023-09-30T11:21:59;3.97;;;2.00;;
12585;SDS011;6358;50.760;0.282;2023-09-30T11:24:25;4.43;;;1.90;;
12585;SDS011;6358;50.760;0.282;2023-09-30T11:26:53;2.63;;;2.00;;
12585;SDS011;6358;50.760;0.282;2023-09-30T11:29:23;6.13;;;2.10;;
12585;SDS011;6358;50.760;0.282;2023-09-30T11:31:52;3.73;;;2.00;;
12585;SDS011;6358;50.760;0.282;2023-09-30T11:34:18;4.03;;;1.80;;
12585;SDS011;6358;50.760;0.282;2023-09-30T11:36:48;3.43;;;1.80;;
12585;SDS011;6358;50.760;0.282;2023-09-30T11:39:24;3.60;;;1.80;;
12585;SDS011;6358;50.760;0.282;2023-09-30T11:41:50;5.22;;;2.10;;
12585;SDS011;6358;50.760;0.282;2023-09-30T11:44:17;4.37;;;2.20;;
12585;SDS011;6358;50.760;0.282;2023-09-30T11:49:27;4.37;;;1.80;;
12585;SDS011;6358;50.760;0.282;2023-09-30T11:51:54;5.83;;;2.30;;
12585;SDS011;6358;50.760;0.282;2023-09-30T11:54:20;4.37;;;1.83;;
12585;SDS011;6358;50.760;0.282;2023-09-30T11:56:49;3.20;;;1.85;;
12585;SDS011;6358;50.760;0.282;2023-09-30T11:59:18;3.43;;;1.80;;
12585;SDS011;6358;50.760;0.282;2023-09-30T12:01:45;4.00;;;1.77;;
12585;SDS011;6358;50.760;0.282;2023-09-30T12:04:14;2.73;;;1.70;;
12585;SDS011;6358;50.760;0.282;2023-09-30T12:06:42;4.80;;;1.80;;
12585;SDS011;6358;50.760;0.282;2023-09-30T12:09:08;3.70;;;1.80;;
12585;SDS011;6358;50.760;0.282;2023-09-30T12:11:38;3.03;;;1.60;;
12585;SDS011;6358;50.760;0.282;2023-09-30T12:14:05;2.75;;;1.70;;
12585;SDS011;6358;50.760;0.282;2023-09-30T12:16:31;4.10;;;1.77;;
12585;SDS011;6358;50.760;0.282;2023-09-30T12:18:57;3.77;;;1.60;;
12585;SDS011;6358;50.760;0.282;2023-09-30T12:21:23;3.50;;;1.70;;
12585;SDS011;6358;50.760;0.282;2023-09-30T12:23:50;2.00;;;1.33;;
12585;SDS011;6358;50.760;0.282;2023-09-30T12:26:16;5.60;;;2.13;;
12585;SDS011;6358;50.760;0.282;2023-09-30T12:28:45;2.63;;;1.40;;
12585;SDS011;6358;50.760;0.282;2023-09-30T12:31:12;3.53;;;1.55;;
12585;SDS011;6358;50.760;0.282;2023-09-30T12:33:38;4.20;;;1.80;;
12585;SDS011;6358;50.760;0.282;2023-09-30T12:36:05;3.77;;;1.77;;
12585;SDS011;6358;50.760;0.282;2023-09-30T12:38:32;3.57;;;1.80;;
12585;SDS011;6358;50.760;0.282;2023-09-30T12:40:59;2.37;;;1.60;;
12585;SDS011;6358;50.760;0.282;2023-09-30T12:43:25;4.07;;;1.70;;
12585;SDS011;6358;50.760;0.282;2023-09-30T12:45:52;2.73;;;1.50;;
12585;SDS011;6358;50.760;0.282;2023-09-30T12:48:18;3.50;;;1.87;;
12585;SDS011;6358;50.760;0.282;2023-09-30T12:50:44;2.97;;;1.60;;
12585;SDS011;6358;50.760;0.282;2023-09-30T12:53:10;3.37;;;1.60;;
12585;SDS011;6358;50.760;0.282;2023-09-30T12:55:36;3.05;;;1.50;;
12585;SDS011;6358;50.760;0.282;2023-09-30T12:58:03;3.10;;;1.40;;
12585;SDS011;6358;50.760;0.282;2023-09-30T13:00:30;4.67;;;2.20;;
12585;SDS011;6358;50.760;0.282;2023-09-30T13:02:58;2.40;;;1.57;;
12585;SDS011;6358;50.760;0.282;2023-09-30T13:05:24;3.23;;;1.60;;
12585;SDS011;6358;50.760;0.282;2023-09-30T13:07:50;2.57;;;1.40;;
12585;SDS011;6358;50.760;0.282;2023-09-30T13:10:18;3.63;;;1.57;;
12585;SDS011;6358;50.760;0.282;2023-09-30T13:12:44;2.87;;;1.70;;
12585;SDS011;6358;50.760;0.282;2023-09-30T13:15:10;2.85;;;1.75;;
12585;SDS011;6358;50.760;0.282;2023-09-30T13:17:39;3.30;;;1.53;;
12585;SDS011;6358;50.760;0.282;2023-09-30T13:20:05;3.70;;;1.60;;
12585;SDS011;6358;50.760;0.282;2023-09-30T13:22:43;2.27;;;1.30;;
12585;SDS011;6358;50.760;0.282;2023-09-30T13:25:09;2.40;;;1.60;;
12585;SDS011;6358;50.760;0.282;2023-09-30T13:27:38;3.13;;;1.60;;
12585;SDS011;6358;50.760;0.282;2023-09-30T13:30:05;2.13;;;1.50;;
12585;SDS011;6358;50.760;0.282;2023-09-30T13:32:33;3.03;;;1.83;;
12585;SDS011;6358;50.760;0.282;2023-09-30T13:35:04;2.33;;;1.50;;
12585;SDS011;6358;50.760;0.282;2023-09-30T13:37:33;3.20;;;1.73;;
12585;SDS011;6358;50.760;0.282;2023-09-30T13:40:00;1.93;;;1.40;;
12585;SDS011;6358;50.760;0.282;2023-09-30T13:42:27;3.60;;;1.50;;
12585;SDS011;6358;50.760;0.282;2023-09-30T13:44:53;3.23;;;1.40;;
12585;SDS011;6358;50.760;0.282;2023-09-30T13:47:22;2.17;;;1.30;;
12585;SDS011;6358;50.760;0.282;2023-09-30T13:49:48;3.33;;;1.40;;
12585;SDS011;6358;50.760;0.282;2023-09-30T13:52:14;2.93;;;1.30;;
12585;SDS011;6358;50.760;0.282;2023-09-30T13:54:40;1.93;;;1.33;;
12585;SDS011;6358;50.760;0.282;2023-09-30T13:57:07;3.53;;;1.60;;
12585;SDS011;6358;50.760;0.282;2023-09-30T13:59:33;3.13;;;1.40;;
12585;SDS011;6358;50.760;0.282;2023-09-30T14:02:00;1.63;;;1.27;;
12585;SDS011;6358;50.760;0.282;2023-09-30T14:04:26;2.80;;;1.50;;
12585;SDS011;6358;50.760;0.282;2023-09-30T14:06:52;3.00;;;1.57;;
12585;SDS011;6358;50.760;0.282;2023-09-30T14:09:18;3.00;;;1.50;;
12585;SDS011;6358;50.760;0.282;2023-09-30T14:11:44;3.83;;;1.50;;
12585;SDS011;6358;50.760;0.282;2023-09-30T14:14:10;2.47;;;1.50;;
12585;SDS011;6358;50.760;0.282;2023-09-30T14:16:37;2.43;;;1.50;;
12585;SDS011;6358;50.760;0.282;2023-09-30T14:19:03;1.93;;;1.40;;
12585;SDS011;6358;50.760;0.282;2023-09-30T14:21:29;2.17;;;1.40;;
12585;SDS011;6358;50.760;0.282;2023-09-30T14:23:57;3.47;;;1.70;;
12585;SDS011;6358;50.760;0.282;2023-09-30T14:26:23;2.23;;;1.30;;
12585;SDS011;6358;50.760;0.282;2023-09-30T14:28:49;3.73;;;1.50;;
12585;SDS011;6358;50.760;0.282;2023-09-30T14:31:16;2.80;;;1.50;;
12585;SDS011;6358;50.760;0.282;2023-09-30T14:33:42;2.03;;;1.20;;
12585;SDS011;6358;50.760;0.282;2023-09-30T14:36:08;3.43;;;1.47;;
12585;SDS011;6358;50.760;0.282;2023-09-30T14:38:34;2.47;;;1.50;;
12585;SDS011;6358;50.760;0.282;2023-09-30T14:41:05;3.37;;;1.60;;
12585;SDS011;6358;50.760;0.282;2023-09-30T14:43:32;2.13;;;1.40;;
12585;SDS011;6358;50.760;0.282;2023-09-30T14:46:01;2.20;;;1.27;;
12585;SDS011;6358;50.760;0.282;2023-09-30T14:48:28;2.27;;;1.60;;
12585;SDS011;6358;50.760;0.282;2023-09-30T14:50:54;2.57;;;1.40;;
12585;SDS011;6358;50.760;0.282;2023-09-30T14:53:22;1.97;;;1.33;;
12585;SDS011;6358;50.760;0.282;2023-09-30T14:55:48;2.08;;;1.30;;
12585;SDS011;6358;50.760;0.282;2023-09-30T14:58:14;2.80;;;1.50;;
12585;SDS011;6358;50.760;0.282;2023-09-30T15:00:40;2.10;;;1.30;;
12585;SDS011;6358;50.760;0.282;2023-09-30T15:03:07;2.57;;;1.40;;
12585;SDS011;6358;50.760;0.282;2023-09-30T15:05:33;2.20;;;1.43;;
12585;SDS011;6358;50.760;0.282;2023-09-30T15:08:00;2.53;;;1.40;;
12585;SDS011;6358;50.760;0.282;2023-09-30T15:10:27;1.97;;;1.40;;
12585;SDS011;6358;50.760;0.282;2023-09-30T15:12:54;1.53;;;1.17;;
12585;SDS011;6358;50.760;0.282;2023-09-30T15:15:20;1.55;;;1.38;;
12585;SDS011;6358;50.760;0.282;2023-09-30T15:17:46;2.73;;;1.60;;
12585;SDS011;6358;50.760;0.282;2023-09-30T15:20:12;2.23;;;1.20;;
12585;SDS011;6358;50.760;0.282;2023-09-30T15:22:38;1.73;;;1.30;;
12585;SDS011;6358;50.760;0.282;2023-09-30T15:25:06;2.10;;;1.20;;
12585;SDS011;6358;50.760;0.282;2023-09-30T15:27:32;2.60;;;1.37;;
12585;SDS011;6358;50.760;0.282;2023-09-30T15:29:58;2.22;;;1.30;;